Time;durP1;ratioP1;P1;durP2;ratioP2;P2;SDS_P1;SDS_P2;PMS_P1;PMS_P2;Temp;Humidity;BMP_temperature;BMP_pressure;BME280_temperature;BME280_humidity;BME280_pressure;Samples;Min_cycle;Max_cycle;Signal;HPM_P1;HPM_P2
2020/12/08 00:01:27;;;;;;;21.17;11.30;;;;;;;0.30;86.27;97580.94;5064804;28;20110;-82
2020/12/08 00:03:53;;;;;;;20.93;10.23;;;;;;;0.26;86.29;97575.09;5058344;28;20047;-82
2020/12/08 00:06:19;;;;;;;28.03;11.47;;;;;;;0.31;86.09;97558.56;5061393;28;20044;-82
2020/12/08 00:08:45;;;;;;;21.53;10.73;;;;;;;0.47;86.28;97587.25;5066534;28;20053;-82
2020/12/08 00:11:16;;;;;;;23.63;11.73;;;;;;;0.42;86.18;97582.38;5060802;28;20044;-82
2020/12/08 00:13:42;;;;;;;25.43;12.37;;;;;;;0.44;85.76;97579.53;5059094;28;20106;-81
2020/12/08 00:16:09;;;;;;;25.77;13.53;;;;;;;0.28;86.37;97559.72;5054904;28;20059;-81
2020/12/08 00:18:35;;;;;;;22.47;11.40;;;;;;;0.40;86.75;97570.97;5058041;28;20048;-82
2020/12/08 00:21:01;;;;;;;26.23;11.83;;;;;;;0.50;86.01;97578.91;5063406;28;20056;-81
2020/12/08 00:23:27;;;;;;;28.00;13.30;;;;;;;0.35;86.08;97558.09;5060162;28;20060;-81
2020/12/08 00:25:54;;;;;;;23.97;11.53;;;;;;;0.50;86.47;97574.38;5065338;28;20121;-81
2020/12/08 00:28:25;;;;;;;25.93;12.33;;;;;;;0.61;86.27;97575.09;5060193;28;20090;-81
2020/12/08 00:30:52;;;;;;;25.20;12.13;;;;;;;0.39;86.03;97539.88;5055231;28;20414;-81
2020/12/08 00:33:19;;;;;;;23.27;12.53;;;;;;;0.48;85.90;97559.47;5061732;28;20063;-81
2020/12/08 00:35:46;;;;;;;28.60;13.40;;;;;;;0.54;86.07;97566.84;5057380;28;20060;-82
2020/12/08 00:38:12;;;;;;;27.73;12.30;;;;;;;0.62;86.08;97574.94;5063981;28;20052;-82
2020/12/08 00:40:38;;;;;;;24.77;11.53;;;;;;;0.49;86.18;97563.84;5051950;28;21435;-81
2020/12/08 00:43:05;;;;;;;26.53;13.23;;;;;;;0.66;86.48;97580.78;5053761;28;20608;-82
2020/12/08 00:45:32;;;;;;;21.93;11.87;;;;;;;0.57;86.29;97571.06;5059641;28;20079;-81
2020/12/08 00:47:58;;;;;;;26.50;11.60;;;;;;;0.61;86.54;97585.78;5063136;28;20044;-82
2020/12/08 00:50:24;;;;;;;25.20;12.70;;;;;;;0.69;86.51;97561.75;5060483;28;20053;-81
2020/12/08 00:52:51;;;;;;;26.43;13.90;;;;;;;0.80;86.19;97565.94;5065201;28;20055;-82
2020/12/08 00:55:17;;;;;;;28.70;13.40;;;;;;;0.71;85.48;97541.03;5066046;28;20091;-82
2020/12/08 00:57:43;;;;;;;27.20;12.13;;;;;;;0.72;86.08;97539.19;5060952;28;20053;-81
2020/12/08 01:00:10;;;;;;;28.23;13.37;;;;;;;0.86;85.58;97568.84;5057735;28;20060;-81
2020/12/08 01:02:37;;;;;;;27.37;13.00;;;;;;;0.88;85.41;97566.00;5061199;28;20055;-81
2020/12/08 01:05:03;;;;;;;30.87;13.67;;;;;;;0.88;86.35;97571.34;5068306;28;20040;-81
2020/12/08 01:07:29;;;;;;;27.17;13.87;;;;;;;0.77;86.00;97552.91;5059464;28;20107;-81
2020/12/08 01:09:56;;;;;;;28.33;13.20;;;;;;;0.93;84.92;97554.78;5064428;28;20102;-81
2020/12/08 01:12:22;;;;;;;27.53;12.47;;;;;;;0.96;84.48;97562.50;5065479;28;20543;-82
2020/12/08 01:14:49;;;;;;;28.13;13.20;;;;;;;0.86;85.64;97570.69;5041666;28;20040;-82
2020/12/08 01:17:15;;;;;;;28.70;12.43;;;;;;;0.76;86.13;97583.34;5066212;28;20072;-82
2020/12/08 01:19:42;;;;;;;24.40;12.48;;;;;;;0.70;86.31;97561.56;5071444;28;20057;-81
2020/12/08 01:22:08;;;;;;;24.75;12.15;;;;;;;0.89;86.28;97589.09;5050677;28;20049;-81
2020/12/08 01:24:35;;;;;;;27.65;13.60;;;;;;;0.83;85.54;97579.03;5048146;28;20052;-82
2020/12/08 01:27:01;;;;;;;29.33;13.90;;;;;;;0.86;85.86;97555.47;5071744;28;20044;-82
2020/12/08 01:29:30;;;;;;;28.23;13.50;;;;;;;1.12;84.66;97583.13;5065788;28;20049;-82
2020/12/08 01:31:58;;;;;;;28.50;13.88;;;;;;;0.88;84.65;97544.59;5058331;28;20049;-81
2020/12/08 01:34:24;;;;;;;25.98;13.05;;;;;;;0.91;85.22;97562.16;5063962;28;20048;-81
2020/12/08 01:36:52;;;;;;;30.03;13.17;;;;;;;1.01;84.99;97563.69;5066609;28;20102;-81
2020/12/08 01:39:18;;;;;;;25.90;13.40;;;;;;;0.99;84.70;97544.25;5067874;28;20057;-81
2020/12/08 01:41:44;;;;;;;21.87;12.03;;;;;;;0.93;84.77;97531.53;5062724;28;20044;-82
2020/12/08 01:44:10;;;;;;;29.03;12.70;;;;;;;1.04;84.14;97541.94;5060561;28;20075;-81
2020/12/08 01:46:37;;;;;;;27.20;13.63;;;;;;;0.98;84.75;97550.63;5064818;28;20405;-81
2020/12/08 01:49:03;;;;;;;24.95;12.48;;;;;;;1.02;84.12;97567.19;5065169;28;20048;-82
2020/12/08 01:51:30;;;;;;;25.07;13.07;;;;;;;0.94;84.50;97557.31;5061302;28;20045;-81
2020/12/08 01:53:57;;;;;;;28.08;13.00;;;;;;;0.96;84.26;97557.97;5072724;28;20059;-82
2020/12/08 01:56:24;;;;;;;25.25;12.85;;;;;;;1.12;83.76;97556.34;5068691;28;20056;-81
2020/12/08 01:58:50;;;;;;;24.63;12.13;;;;;;;0.97;84.04;97546.28;5062380;28;20044;-81
2020/12/08 02:01:16;;;;;;;26.67;13.47;;;;;;;1.04;83.93;97554.50;5067842;28;20041;-81
2020/12/08 02:03:43;;;;;;;25.92;12.43;;;;;;;0.88;84.72;97525.84;5063218;28;20503;-81
2020/12/08 02:06:09;;;;;;;25.83;12.33;;;;;;;0.97;84.75;97545.44;5063990;28;20052;-81
2020/12/08 02:08:37;;;;;;;23.17;11.95;;;;;;;0.92;84.71;97545.94;5060378;28;20508;-82
2020/12/08 02:11:05;;;;;;;25.85;12.23;;;;;;;0.91;84.34;97538.09;5071037;28;20118;-82
2020/12/08 02:13:31;;;;;;;27.25;13.63;;;;;;;1.00;83.99;97532.56;5058451;28;20056;-82
2020/12/08 02:15:58;;;;;;;27.15;13.13;;;;;;;0.84;84.84;97537.88;5053517;28;20105;-82
2020/12/08 02:18:24;;;;;;;28.92;13.82;;;;;;;0.91;84.79;97548.78;5065641;28;20473;-81
2020/12/08 02:20:56;;;;;;;25.27;13.45;;;;;;;0.90;84.41;97520.34;5061468;28;20049;-82
2020/12/08 02:23:22;;;;;;;25.92;13.63;;;;;;;0.93;84.35;97522.69;5060435;28;20055;-81
2020/12/08 02:25:56;;;;;;;27.70;13.63;;;;;;;1.01;84.21;97542.28;5062640;28;20162;-82
2020/12/08 02:28:22;;;;;;;25.73;12.73;;;;;;;0.91;84.61;97519.34;5060169;28;20482;-82
2020/12/08 02:30:51;;;;;;;29.13;12.15;;;;;;;0.95;84.29;97518.84;5056014;28;20041;-81
2020/12/08 02:33:22;;;;;;;27.05;12.60;;;;;;;1.01;84.40;97538.75;5056977;28;20045;-81
2020/12/08 02:35:48;;;;;;;25.20;12.60;;;;;;;0.86;84.89;97525.19;5057568;28;20053;-81
2020/12/08 02:38:16;;;;;;;28.60;12.53;;;;;;;0.85;84.64;97531.53;5067220;28;20052;-81
2020/12/08 02:40:42;;;;;;;27.70;13.23;;;;;;;0.77;85.24;97518.13;5045334;28;20114;-81
2020/12/08 02:43:08;;;;;;;26.50;12.87;;;;;;;0.74;85.38;97513.97;5071648;28;20048;-81
2020/12/08 02:45:35;;;;;;;28.77;12.60;;;;;;;0.81;85.23;97515.00;5057837;28;20110;-81
2020/12/08 02:48:01;;;;;;;27.80;12.60;;;;;;;0.72;85.31;97515.13;5054221;28;20056;-82
2020/12/08 02:50:27;;;;;;;27.33;12.63;;;;;;;0.74;85.69;97537.19;5060928;28;20455;-81
2020/12/08 02:52:53;;;;;;;28.30;12.17;;;;;;;0.70;86.08;97552.72;5067730;28;20421;-81
2020/12/08 02:55:21;;;;;;;28.73;13.80;;;;;;;0.66;85.42;97538.84;5059338;28;20040;-82
2020/12/08 02:57:47;;;;;;;28.98;13.07;;;;;;;0.82;85.06;97524.66;5063043;28;20091;-81
2020/12/08 03:00:14;;;;;;;30.85;14.20;;;;;;;0.75;84.26;97506.75;5058655;28;20111;-82
2020/12/08 03:02:40;;;;;;;29.75;13.27;;;;;;;0.83;84.76;97552.28;5062394;28;20493;-82
2020/12/08 03:05:07;;;;;;;25.13;12.65;;;;;;;0.65;85.65;97533.66;5036307;28;20429;-81
2020/12/08 03:07:33;;;;;;;27.55;13.32;;;;;;;0.53;86.28;97528.59;5058721;28;20094;-81
2020/12/08 03:09:59;;;;;;;27.75;12.63;;;;;;;0.57;86.55;97542.47;5066900;28;20053;-81
2020/12/08 03:12:27;;;;;;;30.50;13.85;;;;;;;0.58;86.39;97541.47;5060199;28;20042;-81
2020/12/08 03:14:53;;;;;;;25.23;12.77;;;;;;;0.64;86.18;97551.53;5056019;28;20431;-82
2020/12/08 03:17:19;;;;;;;26.73;12.32;;;;;;;0.63;85.91;97535.66;5066897;28;20044;-82
2020/12/08 03:19:45;;;;;;;26.27;12.75;;;;;;;0.65;85.67;97549.72;5062706;28;20166;-82
2020/12/08 03:22:12;;;;;;;27.42;13.60;;;;;;;0.55;86.00;97530.28;5069019;28;20452;-81
2020/12/08 03:24:38;;;;;;;25.20;12.00;;;;;;;0.69;85.90;97543.88;5061240;28;20052;-82
2020/12/08 03:27:04;;;;;;;28.48;13.27;;;;;;;0.74;85.28;97540.72;5065784;28;20103;-81
2020/12/08 03:29:33;;;;;;;30.92;12.65;;;;;;;0.55;85.46;97517.72;5055600;28;20056;-82
2020/12/08 03:32:02;;;;;;;26.33;11.77;;;;;;;0.57;85.24;97506.88;5055698;28;20056;-82
2020/12/08 03:34:28;;;;;;;27.90;12.27;;;;;;;0.57;85.11;97517.56;5060772;28;20049;-81
2020/12/08 03:36:55;;;;;;;25.20;13.00;;;;;;;0.67;84.93;97515.59;5057124;28;20056;-81
2020/12/08 03:39:21;;;;;;;23.48;12.95;;;;;;;0.69;84.03;97508.25;5059281;28;20059;-81
2020/12/08 03:41:47;;;;;;;23.83;12.43;;;;;;;0.74;83.86;97518.44;5068777;28;20477;-81
2020/12/08 03:44:13;;;;;;;27.70;13.57;;;;;;;0.69;83.53;97526.97;5061325;28;20048;-81
2020/12/08 03:46:40;;;;;;;27.77;13.80;;;;;;;0.53;83.58;97509.88;5061501;28;20063;-81
2020/12/08 03:49:07;;;;;;;27.23;13.07;;;;;;;0.64;84.02;97529.31;5053647;28;20103;-81
2020/12/08 03:51:33;;;;;;;28.37;12.47;;;;;;;0.43;84.36;97509.16;5045656;28;20048;-81
2020/12/08 03:53:59;;;;;;;23.80;12.17;;;;;;;0.45;84.95;97541.94;5060534;28;20045;-81
2020/12/08 03:56:26;;;;;;;30.67;13.27;;;;;;;0.31;85.43;97530.00;5063804;28;20094;-82
2020/12/08 03:58:53;;;;;;;28.57;12.30;;;;;;;0.29;85.76;97532.00;5065625;28;20048;-81
2020/12/08 04:01:21;;;;;;;29.30;14.23;;;;;;;0.18;86.01;97537.63;5057969;28;20047;-81
2020/12/08 04:03:49;;;;;;;29.08;12.95;;;;;;;0.23;86.15;97543.34;5063015;28;20044;-81
2020/12/08 04:06:18;;;;;;;30.05;12.73;;;;;;;-0.02;85.98;97495.09;5058763;28;20037;-81
2020/12/08 04:08:45;;;;;;;25.52;12.75;;;;;;;0.07;85.59;97505.84;5064300;28;20051;-82
2020/12/08 04:11:12;;;;;;;25.10;11.77;;;;;;;0.04;85.72;97508.81;5059847;28;20045;-81
2020/12/08 04:13:38;;;;;;;25.40;12.90;;;;;;;-0.05;86.28;97507.94;5066645;28;20049;-81
2020/12/08 04:16:05;;;;;;;21.80;11.17;;;;;;;-0.04;85.71;97520.31;5058630;28;20110;-81
2020/12/08 04:18:31;;;;;;;23.63;12.33;;;;;;;-0.10;86.77;97526.28;5062719;28;20049;-81
2020/12/08 04:20:58;;;;;;;27.27;13.27;;;;;;;-0.12;86.47;97523.78;5055150;28;20098;-81
2020/12/08 04:23:25;;;;;;;30.53;13.30;;;;;;;-0.11;85.62;97504.06;5070231;28;20055;-81
2020/12/08 04:25:51;;;;;;;23.63;12.33;;;;;;;-0.08;85.54;97516.28;5069901;28;20063;-81
2020/12/08 04:28:20;;;;;;;24.60;13.73;;;;;;;0.02;85.74;97540.22;5057379;28;20044;-82
2020/12/08 04:30:49;;;;;;;29.42;12.95;;;;;;;-0.10;86.50;97547.66;5069952;28;20049;-81
2020/12/08 04:33:16;;;;;;;27.95;13.73;;;;;;;-0.03;86.09;97546.00;5066134;28;20048;-81
2020/12/08 04:35:42;;;;;;;35.10;14.00;;;;;;;-0.04;85.79;97528.31;5059784;28;20382;-81
2020/12/08 04:38:10;;;;;;;29.63;14.03;;;;;;;0.02;86.09;97548.25;5069642;28;20057;-81
2020/12/08 04:40:36;;;;;;;26.33;12.43;;;;;;;0.01;86.49;97533.19;5074513;28;20044;-81
2020/12/08 04:43:04;;;;;;;28.97;14.00;;;;;;;-0.20;86.23;97511.22;5061664;28;20439;-82
2020/12/08 04:45:32;;;;;;;26.50;13.13;;;;;;;-0.23;85.72;97508.81;5063787;28;20090;-81
2020/12/08 04:48:06;;;;;;;30.87;13.60;;;;;;;-0.03;85.85;97528.16;5062759;28;20045;-81
2020/12/08 04:50:33;;;;;;;26.87;13.50;;;;;;;-0.19;85.77;97501.34;5061434;28;20052;-81
2020/12/08 04:53:02;;;;;;;31.90;14.23;;;;;;;-0.14;85.33;97525.75;5061708;28;20083;-80
2020/12/08 04:55:29;;;;;;;26.90;13.17;;;;;;;-0.25;86.54;97536.72;5063571;28;20052;-81
2020/12/08 04:57:56;;;;;;;27.37;12.10;;;;;;;-0.43;85.79;97502.03;5058975;28;20052;-81
2020/12/08 05:00:22;;;;;;;27.47;13.30;;;;;;;-0.34;85.92;97513.63;5050708;28;20698;-81
2020/12/08 05:02:50;;;;;;;31.43;15.97;;;;;;;-0.38;85.66;97543.31;5062376;28;20131;-81
2020/12/08 05:05:17;;;;;;;30.10;14.07;;;;;;;-0.59;86.73;97524.09;5052886;28;20056;-81
2020/12/08 05:07:45;;;;;;;28.50;13.33;;;;;;;-0.70;86.63;97517.16;5069879;28;20045;-83
2020/12/08 05:10:12;;;;;;;27.93;12.70;;;;;;;-0.71;86.50;97510.16;5063762;28;20048;-81
2020/12/08 05:12:40;;;;;;;29.77;13.37;;;;;;;-0.68;86.54;97504.50;5065329;28;20052;-83
2020/12/08 05:15:15;;;;;;;30.67;13.43;;;;;;;-0.68;86.50;97519.69;5066081;28;20078;-81
2020/12/08 05:17:41;;;;;;;29.00;13.17;;;;;;;-0.74;86.76;97511.31;5071418;28;20055;-81
2020/12/08 05:20:09;;;;;;;29.63;12.20;;;;;;;-0.72;86.51;97500.47;5066068;28;20049;-81
2020/12/08 05:22:36;;;;;;;30.00;13.63;;;;;;;-0.53;86.53;97526.13;5062239;28;20041;-81
2020/12/08 05:25:10;;;;;;;30.53;12.80;;;;;;;-0.47;86.58;97511.34;5067219;28;20048;-81
2020/12/08 05:27:37;;;;;;;31.73;14.37;;;;;;;-0.55;86.52;97504.94;5054084;28;20614;-81
2020/12/08 05:30:06;;;;;;;31.50;14.10;;;;;;;-0.47;87.18;97533.53;5062797;28;20070;-81
2020/12/08 05:32:36;;;;;;;29.77;14.32;;;;;;;-0.61;87.30;97515.41;5061465;28;20069;-81
2020/12/08 05:35:03;;;;;;;;;;;;;;;-0.28;86.77;97531.69;5060472;28;20048;-81
2020/12/08 05:37:35;;;;;;;33.27;15.20;;;;;;;-0.39;86.82;97522.09;5060818;28;19921;-81
2020/12/08 05:40:04;;;;;;;29.17;12.80;;;;;;;-0.55;87.19;97512.13;5062058;28;20316;-81
2020/12/08 05:42:33;;;;;;;31.92;14.48;;;;;;;-0.39;86.29;97509.56;5062980;28;20048;-81
2020/12/08 05:45:00;;;;;;;30.80;13.63;;;;;;;-0.36;86.07;97511.94;5066929;28;20048;-81
2020/12/08 05:47:28;;;;;;;33.03;14.07;;;;;;;-0.26;86.48;97517.16;5063527;28;20095;-81
2020/12/08 05:50:00;;;;;;;33.17;14.90;;;;;;;-0.38;86.34;97511.25;5061874;28;20059;-81
2020/12/08 05:52:38;;;;;;;29.33;13.47;;;;;;;-0.38;86.51;97494.38;5060912;28;20051;-81
2020/12/08 05:55:16;;;;;;;29.40;14.37;;;;;;;-0.40;87.28;97497.22;5065630;28;20481;-81
2020/12/08 05:57:44;;;;;;;34.10;14.20;;;;;;;-0.39;87.11;97511.41;5064295;28;20044;-80
2020/12/08 06:00:24;;;;;;;32.97;14.67;;;;;;;-0.61;87.98;97502.06;5059164;28;20052;-81
2020/12/08 06:02:52;;;;;;;31.63;13.05;;;;;;;-0.51;88.41;97524.19;5065519;28;20041;-81
2020/12/08 06:05:34;;;;;;;32.37;14.43;;;;;;;-0.33;87.22;97523.28;5065962;28;20055;-81
2020/12/08 06:08:16;;;;;;;29.77;13.67;;;;;;;-0.26;87.06;97527.84;5060752;28;20041;-81
2020/12/08 06:10:46;;;;;;;29.83;13.70;;;;;;;-0.42;87.57;97501.00;5062158;28;20511;-81
2020/12/08 06:13:23;;;;;;;34.83;14.63;;;;;;;-0.27;86.83;97512.81;5066016;28;20118;-81
2020/12/08 06:15:50;;;;;;;30.80;13.93;;;;;;;-0.36;86.88;97497.75;5064405;28;20056;-81
2020/12/08 06:18:28;;;;;;;33.67;13.73;;;;;;;-0.50;87.77;97498.31;5063800;28;20524;-81
2020/12/08 06:21:00;;;;;;;30.60;13.27;;;;;;;-0.37;88.32;97536.13;5058172;28;20048;-81
2020/12/08 06:23:26;;;;;;;34.17;14.93;;;;;;;-0.54;87.76;97517.31;5066223;28;20060;-81
2020/12/08 06:25:57;;;;;;;30.60;14.93;;;;;;;-0.48;87.67;97518.53;5067380;28;20126;-81
2020/12/08 06:28:25;;;;;;;27.67;14.13;;;;;;;-0.42;87.02;97509.03;5061778;28;20060;-81
2020/12/08 06:31:01;;;;;;;34.60;14.03;;;;;;;-0.29;87.00;97524.66;5055368;28;20061;-81
2020/12/08 06:33:32;;;;;;;36.17;14.17;;;;;;;-0.20;86.52;97515.69;5044874;28;20079;-81
2020/12/08 06:36:02;;;;;;;33.60;15.30;;;;;;;-0.24;86.82;97531.22;5066352;28;20413;-81
2020/12/08 06:38:36;;;;;;;35.58;15.52;;;;;;;-0.31;87.21;97532.00;5066212;28;20064;-80
2020/12/08 06:41:03;;;;;;;25.97;12.73;;;;;;;-0.34;87.36;97530.47;5059814;28;20052;-82
2020/12/08 06:43:29;;;;;;;29.47;14.90;;;;;;;-0.34;87.49;97538.47;5060091;28;20060;-82
2020/12/08 06:46:06;;;;;;;30.87;14.00;;;;;;;-0.47;87.40;97519.34;5057959;28;20056;-81
2020/12/08 06:48:35;;;;;;;29.47;13.90;;;;;;;-0.41;87.21;97529.41;5056831;28;20057;-82
2020/12/08 06:51:01;;;;;;;32.60;13.53;;;;;;;-0.41;86.86;97524.06;5058586;28;20135;-82
2020/12/08 06:53:28;;;;;;;34.97;14.27;;;;;;;-0.47;86.50;97517.50;5056418;28;20048;-82
2020/12/08 06:55:54;;;;;;;28.07;13.97;;;;;;;-0.22;86.44;97544.41;5055997;28;20053;-82
2020/12/08 06:58:20;;;;;;;28.53;12.83;;;;;;;-0.43;86.97;97536.75;5056532;28;20057;-81
2020/12/08 07:00:46;;;;;;;31.27;13.97;;;;;;;-0.40;86.75;97523.06;5057262;28;20037;-82
2020/12/08 07:03:15;;;;;;;32.23;15.30;;;;;;;-0.38;86.54;97540.63;5058050;28;20053;-82
2020/12/08 07:05:43;;;;;;;32.83;14.80;;;;;;;-0.59;86.85;97537.44;5056082;28;20724;-82
2020/12/08 07:08:15;;;;;;;29.83;14.23;;;;;;;-0.61;87.17;97542.09;5057050;28;20041;-82
2020/12/08 07:10:43;;;;;;;27.37;12.70;;;;;;;-0.62;87.38;97559.94;5056039;28;20486;-82
2020/12/08 07:13:13;;;;;;;29.37;13.83;;;;;;;-0.62;87.52;97557.25;5057884;28;20469;-82
2020/12/08 07:15:40;;;;;;;30.63;14.23;;;;;;;-0.65;86.93;97575.44;5057998;28;20056;-82
2020/12/08 07:18:09;;;;;;;33.23;14.13;;;;;;;-0.89;86.93;97539.50;5056527;28;20447;-82
2020/12/08 07:20:35;;;;;;;24.70;12.73;;;;;;;-0.78;86.90;97565.97;5056923;28;20052;-82
2020/12/08 07:23:04;;;;;;;30.30;14.30;;;;;;;-0.93;87.80;97551.50;5056413;28;20057;-82
2020/12/08 07:25:31;;;;;;;33.73;14.10;;;;;;;-0.72;87.39;97577.88;5055606;28;20052;-82
2020/12/08 07:27:57;;;;;;;33.03;14.73;;;;;;;-0.78;87.08;97551.81;5057524;28;20508;-82
2020/12/08 07:30:25;;;;;;;30.70;14.63;;;;;;;-0.71;86.87;97547.50;5057896;28;20051;-82
2020/12/08 07:32:52;;;;;;;31.80;14.23;;;;;;;-0.89;87.11;97531.50;5054527;28;20517;-82
2020/12/08 07:35:26;;;;;;;32.57;15.20;;;;;;;-0.71;86.59;97539.50;5055239;28;20479;-82
2020/12/08 07:37:53;;;;;;;31.93;15.90;;;;;;;-0.54;86.33;97559.19;5055957;28;20052;-82
2020/12/08 07:40:22;;;;;;;35.70;14.80;;;;;;;-0.62;87.08;97578.63;5055076;28;20056;-82
2020/12/08 07:42:50;;;;;;;33.17;15.33;;;;;;;-0.88;87.33;97551.88;5051549;28;20048;-82
2020/12/08 07:45:18;;;;;;;36.63;14.77;;;;;;;-0.77;87.82;97573.00;5052877;28;20048;-82
2020/12/08 07:47:52;;;;;;;28.87;14.30;;;;;;;-0.72;87.78;97575.22;5053672;28;20122;-82
2020/12/08 07:50:24;;;;;;;34.63;14.70;;;;;;;-0.61;86.88;97568.78;5053340;28;20167;-82
2020/12/08 07:52:59;;;;;;;31.67;14.40;;;;;;;-0.54;86.83;97588.56;5055837;28;20429;-82
2020/12/08 07:55:28;;;;;;;29.93;13.63;;;;;;;-0.67;87.26;97588.09;5057190;28;20047;-82
2020/12/08 07:57:54;;;;;;;33.93;15.27;;;;;;;-0.79;87.33;97577.63;5053340;28;20151;-82
2020/12/08 08:00:20;;;;;;;28.17;13.83;;;;;;;-0.61;87.36;97600.81;5055276;28;20094;-82
2020/12/08 08:02:47;;;;;;;30.47;14.13;;;;;;;-0.72;87.17;97589.38;5055661;28;20049;-82
2020/12/08 08:05:15;;;;;;;26.70;12.63;;;;;;;-0.62;87.54;97594.63;5056296;28;20045;-82
2020/12/08 08:07:42;;;;;;;37.53;14.98;;;;;;;-0.55;87.22;97598.38;5057204;28;20049;-82
2020/12/08 08:10:09;;;;;;;35.53;16.40;;;;;;;-0.62;86.92;97578.63;5056645;28;20049;-82
2020/12/08 08:12:36;;;;;;;35.83;16.17;;;;;;;-0.65;87.14;97562.91;5052615;28;20079;-82
2020/12/08 08:15:03;;;;;;;35.83;16.17;;;;;;;-0.59;87.15;97585.47;5056399;28;20056;-82
2020/12/08 08:17:30;;;;;;;36.00;16.73;;;;;;;-0.64;86.86;97588.63;5055438;28;20102;-82
2020/12/08 08:19:56;;;;;;;36.13;15.87;;;;;;;-0.54;86.96;97605.41;5054510;28;20519;-82
2020/12/08 08:22:23;;;;;;;32.93;15.57;;;;;;;-0.73;87.25;97582.34;5056340;28;20056;-82
2020/12/08 08:24:49;;;;;;;34.20;16.13;;;;;;;-0.49;87.05;97615.63;5053769;28;20473;-83
2020/12/08 08:27:16;;;;;;;34.63;14.43;;;;;;;-0.63;86.80;97594.78;5055186;28;20045;-82
2020/12/08 08:29:43;;;;;;;34.97;16.27;;;;;;;-0.53;87.42;97611.56;5057299;28;20786;-83
2020/12/08 08:32:10;;;;;;;38.67;17.43;;;;;;;-0.60;87.28;97624.69;5055548;28;20048;-82
2020/12/08 08:34:36;;;;;;;41.63;19.03;;;;;;;-0.63;86.98;97600.97;5053972;28;20076;-83
2020/12/08 08:37:03;;;;;;;35.87;16.03;;;;;;;-0.69;86.24;97571.38;5054541;28;20476;-82
2020/12/08 08:39:29;;;;;;;37.77;16.50;;;;;;;-0.49;86.58;97606.78;5053722;28;20040;-82
2020/12/08 08:41:56;;;;;;;37.47;16.07;;;;;;;-0.38;86.37;97611.88;5055892;28;20045;-82
2020/12/08 08:44:23;;;;;;;31.43;15.43;;;;;;;-0.49;86.33;97604.09;5051779;28;20052;-83
2020/12/08 08:46:50;;;;;;;33.37;16.43;;;;;;;-0.61;85.99;97603.50;5054690;28;20424;-83
2020/12/08 08:49:17;;;;;;;31.47;14.50;;;;;;;-0.40;85.79;97637.91;5056372;28;20049;-82
2020/12/08 08:51:44;;;;;;;33.83;15.13;;;;;;;-0.59;86.09;97594.34;5055044;28;20492;-82
2020/12/08 08:54:10;;;;;;;31.53;13.67;;;;;;;-0.39;85.93;97623.56;5054495;28;20040;-82
2020/12/08 08:56:36;;;;;;;32.87;15.10;;;;;;;-0.37;86.31;97622.41;5055270;28;20404;-82
2020/12/08 08:59:03;;;;;;;31.97;13.77;;;;;;;-0.34;86.10;97634.59;5055099;28;20547;-82
2020/12/08 09:01:29;;;;;;;37.67;16.70;;;;;;;-0.21;85.93;97615.50;5056530;28;20048;-82
2020/12/08 09:03:57;;;;;;;39.50;15.63;;;;;;;-0.28;85.51;97598.44;5055775;28;20056;-83
2020/12/08 09:06:23;;;;;;;32.40;14.67;;;;;;;-0.22;85.26;97608.50;5053806;28;20051;-83
2020/12/08 09:08:49;;;;;;;38.13;15.60;;;;;;;-0.06;84.93;97619.31;5057822;28;20066;-83
2020/12/08 09:11:17;;;;;;;33.53;14.40;;;;;;;-0.12;84.37;97601.25;5057990;28;20059;-83
2020/12/08 09:13:44;;;;;;;28.60;13.10;;;;;;;-0.13;84.55;97617.44;5060264;28;20068;-82
2020/12/08 09:16:11;;;;;;;35.13;15.00;;;;;;;-0.06;84.20;97607.78;5058209;28;20044;-82
2020/12/08 09:18:37;;;;;;;33.80;15.43;;;;;;;0.17;84.22;97634.84;5059176;28;20559;-83
2020/12/08 09:21:05;;;;;;;35.00;14.77;;;;;;;0.12;83.39;97618.41;5057352;28;20050;-83
2020/12/08 09:23:32;;;;;;;37.80;15.53;;;;;;;0.08;83.45;97609.06;5056935;28;20079;-83
2020/12/08 09:25:59;;;;;;;33.97;15.07;;;;;;;0.08;83.92;97622.44;5056857;28;20501;-83
2020/12/08 09:28:28;;;;;;;27.67;12.47;;;;;;;-0.01;84.25;97598.31;5057751;28;20044;-83
2020/12/08 09:30:54;;;;;;;33.55;14.10;;;;;;;0.21;83.55;97613.97;5059613;28;20097;-83
2020/12/08 09:33:21;;;;;;;30.10;13.77;;;;;;;0.24;83.31;97608.31;5058164;28;20055;-83
2020/12/08 09:35:47;;;;;;;28.70;14.90;;;;;;;0.42;83.32;97622.47;5059195;28;20043;-83
2020/12/08 09:38:14;;;;;;;34.50;14.83;;;;;;;0.42;83.17;97619.81;5058547;28;20067;-83
2020/12/08 09:40:42;;;;;;;31.27;13.73;;;;;;;0.46;83.15;97613.13;5058764;28;20663;-83
2020/12/08 09:43:09;;;;;;;30.60;13.37;;;;;;;0.58;82.50;97639.59;5059169;28;20481;-83
2020/12/08 09:45:37;;;;;;;33.00;15.13;;;;;;;0.60;82.73;97632.25;5058282;28;20052;-83
2020/12/08 09:48:04;;;;;;;31.20;14.33;;;;;;;0.59;82.73;97626.06;5059479;28;20052;-83
2020/12/08 09:50:31;;;;;;;32.13;14.87;;;;;;;0.63;82.40;97610.53;5058354;28;20377;-83
2020/12/08 09:52:57;;;;;;;30.07;13.97;;;;;;;0.67;82.13;97625.25;5060634;28;20140;-83
2020/12/08 09:55:25;;;;;;;33.40;14.50;;;;;;;0.67;81.54;97611.91;5055825;28;20057;-83
2020/12/08 09:57:51;;;;;;;29.10;13.80;;;;;;;0.67;80.85;97601.19;5059787;28;20060;-83
2020/12/08 10:00:18;;;;;;;26.60;13.67;;;;;;;0.86;81.38;97616.16;5059394;28;20040;-83
2020/12/08 10:02:44;;;;;;;28.40;13.63;;;;;;;0.98;81.30;97609.50;5059410;28;20057;-83
2020/12/08 10:05:10;;;;;;;27.00;13.13;;;;;;;0.99;80.12;97600.47;5058508;28;20064;-83
2020/12/08 10:07:37;;;;;;;27.47;12.80;;;;;;;0.90;80.99;97581.88;5057342;28;20049;-83
2020/12/08 10:10:04;;;;;;;25.13;13.13;;;;;;;1.01;80.24;97574.41;5058079;28;20041;-83
2020/12/08 10:12:31;;;;;;;28.83;13.67;;;;;;;1.09;80.58;97576.25;5051526;28;20139;-82
2020/12/08 10:14:57;;;;;;;28.77;13.50;;;;;;;1.26;79.94;97603.06;5057210;28;20532;-83
2020/12/08 10:17:24;;;;;;;27.63;12.90;;;;;;;1.29;80.26;97608.91;5056801;28;20056;-82
2020/12/08 10:19:50;;;;;;;25.00;12.53;;;;;;;1.30;80.51;97591.03;5058226;28;20044;-82
2020/12/08 10:22:16;;;;;;;30.58;13.05;;;;;;;1.26;80.06;97581.63;5057770;28;20056;-82
2020/12/08 10:24:43;;;;;;;28.30;13.00;;;;;;;1.28;79.95;97579.63;5057854;28;20159;-82
2020/12/08 10:27:13;;;;;;;30.05;12.65;;;;;;;1.47;79.23;97598.06;5057681;28;20435;-83
2020/12/08 10:29:40;;;;;;;26.17;12.77;;;;;;;1.44;78.37;97581.50;5055841;28;20049;-83
2020/12/08 10:32:06;;;;;;;30.42;12.65;;;;;;;1.60;78.77;97597.59;5058295;28;20057;-82
2020/12/08 10:34:33;;;;;;;25.92;12.65;;;;;;;1.58;78.02;97572.78;5056441;28;20045;-83
2020/12/08 10:36:59;;;;;;;30.92;13.25;;;;;;;1.63;78.41;97564.28;5058358;28;20055;-82
2020/12/08 10:39:26;;;;;;;27.70;14.00;;;;;;;1.73;77.43;97592.56;5057521;28;20040;-82
2020/12/08 10:41:55;;;;;;;28.02;12.55;;;;;;;1.86;78.16;97600.09;5058960;28;20055;-82
2020/12/08 10:44:21;;;;;;;23.27;12.50;;;;;;;1.84;78.14;97604.78;5056751;28;20341;-81
2020/12/08 10:46:50;;;;;;;24.25;12.25;;;;;;;1.81;76.95;97593.56;5058131;28;20044;-82
2020/12/08 10:49:17;;;;;;;26.75;12.57;;;;;;;1.84;76.86;97588.72;5055844;28;20068;-82
2020/12/08 10:51:44;;;;;;;26.23;10.88;;;;;;;1.82;77.44;97589.88;5057852;28;20060;-82
2020/12/08 10:54:10;;;;;;;26.90;12.13;;;;;;;1.95;76.70;97574.13;5057902;28;20505;-82
2020/12/08 10:56:36;;;;;;;26.17;12.18;;;;;;;1.98;76.54;97589.03;5058684;28;20052;-82
2020/12/08 10:59:03;;;;;;;26.02;13.20;;;;;;;2.02;76.34;97569.78;5058974;28;20399;-82
2020/12/08 11:01:29;;;;;;;21.73;10.88;;;;;;;2.11;75.62;97575.97;5057316;28;20443;-82
2020/12/08 11:03:58;;;;;;;22.55;11.48;;;;;;;2.13;76.28;97579.31;5055770;28;20048;-82
2020/12/08 11:06:26;;;;;;;22.40;11.93;;;;;;;2.03;75.29;97549.16;5056967;28;20044;-82
2020/12/08 11:08:53;;;;;;;23.88;12.23;;;;;;;2.01;76.18;97560.03;5055982;28;20071;-82
2020/12/08 11:11:23;;;;;;;21.30;11.40;;;;;;;2.22;75.70;97580.13;5057061;28;20443;-82
2020/12/08 11:13:50;;;;;;;;;;;;;;;2.38;75.41;97580.09;5056908;28;20040;-82
2020/12/08 11:16:16;;;;;;;21.27;10.55;;;;;;;2.28;74.44;97564.19;5056976;28;19935;-82
2020/12/08 11:18:43;;;;;;;21.02;10.68;;;;;;;2.19;74.83;97554.47;5056971;28;20060;-82
2020/12/08 11:21:10;;;;;;;22.90;11.65;;;;;;;2.36;74.70;97582.09;5056801;28;20057;-82
2020/12/08 11:23:36;;;;;;;24.83;11.88;;;;;;;2.42;75.35;97575.22;5056509;28;20052;-82